Vremea acum in Pecica - Romania

Vrei sa afli care e starea vremii acum in Timis - Romania? Dorim sa iti furnizam starea vremii pentru Timis - Romania. Starea vremii Timis - Romania pentru astazi.

Vremea acum in Pecica

Temperatura: 11.4 °C

Este: Senin
Se simte ca: 10.7 °C
Innorat: 0 %
Precipitatii: 0 %
Presiune atmosferica: 1015 hPa
Umiditate: 66%
Vizibilitate: 10 km
Vantul bate din SSE cu 7.9 km/h

Evolutia vremii in Pecica pe ore

Ora: 12:00
Senin
Temperatura: 22.6°C
Sansa de precipitatii: 0%
Ora Descriere Temp Se simte Precipitatii Umiditate Vant
00:00Senin14.4°14.6°0%52%S 5.8 KM/H
01:00Senin13.7°13.4°0%55%S 7.2 KM/H
02:00Senin13°12.7°0%58%S 7.2 KM/H
03:00Senin12.4°11.8°0%60%SSE 7.9 KM/H
04:00Senin11.8°10.9°0%64%SSE 9.4 KM/H
05:00Senin11.4°10.4°0%68%SE 9.7 KM/H
06:00Senin11°9.9°0%72%SSE 9 KM/H
07:00Senin11.2°10.3°0%75%SSE 8.6 KM/H
08:00Senin11.4°13.5°0%66%SSE 7.9 KM/H
09:00Senin16.8°16.8°0%62%SSE 9.4 KM/H
10:00Senin19.1°19.1°0%56%SSE 9.7 KM/H
11:00Senin21.1°21.1°0%50%S 10.8 KM/H
12:00Senin22.6°24.5°0%46%S 11.5 KM/H
13:00Senin23.7°24.7°0%42%S 12.6 KM/H
14:00Senin24.6°24.8°0%35%SSW 14.8 KM/H
15:00Senin25.1°25°0%33%SSW 15.8 KM/H
16:00Senin25.3°25.1°0%33%SSW 16.6 KM/H
17:00Senin25.2°25°0%32%SSW 16.2 KM/H
18:00Senin24.8°25.1°0%38%SSW 13 KM/H
19:00Senin23.3°24.8°0%47%S 10.4 KM/H
20:00Senin20.1°20.1°0%53%S 11.5 KM/H
21:0017.9°17.9°0%51%SSE 11.5 KM/H
22:00Senin16.9°16.9°0%50%SSE 11.9 KM/H
23:00Senin15.9°16°0%53%S 13 KM/H




tutorials